SBUG/URG METAR and TAF weather

Enter ICAO airport designator
Station Type Date Time Source
SBUG METAR 2019/04/18 10:00 UTC NOAA

SBUG 181000Z 18003KT CAVOK 13/12 Q1014


Station Type Date Time Source
SBUG Decoded METAR 2019/04/18 10:00 UTC NOAA

Uruguaiana Aeroporto , Brazil (SBUG) 29-47S 057-02W 74M
Apr 18, 2019 - 06:00 AM EDT / 2019.04.18 1000 UTC
Wind: from the S (180 degrees) at 3 MPH (3 KT):0
Visibility: greater than 7 mile(s):0
Temperature: 55 F (13 C)
Dew Point: 53 F (12 C)
Relative Humidity: 93%
Pressure (altimeter): 29.94 in. Hg (1014 hPa)
ob: SBUG 181000Z 18003KT CAVOK 13/12 Q1014
cycle: 10

Station Type Date Time Source
SBUG TAF 2019/04/18 12:42 UTC NOAA

TAF SBUG 180900Z 1812/1824 07005KT 9999 FEW040 TX27/1818Z TN21/1823Z
BECMG 1818/1820 CAVOK
RMK PDW

Example: see airport list